Time;durP1;ratioP1;P1;durP2;ratioP2;P2;SDS_P1;SDS_P2;PMS_P1;PMS_P2;Temp;Humidity;BMP_temperature;BMP_pressure;BME280_temperature;BME280_humidity;BME280_pressure;Samples;Min_cycle;Max_cycle;Signal;HPM_P1;HPM_P2
2023/09/25 00:00:51;;;;;;;3.93;1.43;;;;;;;10.41;88.59;148746.31;4899766;29;20244;-52
2023/09/25 00:03:18;;;;;;;2.63;1.50;;;;;;;10.44;89.89;148752.53;4900723;28;20319;-54
2023/09/25 00:05:50;;;;;;;3.97;1.33;;;;;;;10.42;90.45;148748.81;4898282;28;20328;-52
2023/09/25 00:08:16;;;;;;;3.17;1.80;;;;;;;10.42;88.77;148748.81;4901004;29;20238;-54
2023/09/25 00:11:08;;;;;;;3.97;2.00;;;;;;;10.63;88.96;148799.84;4897279;29;20254;-54
2023/09/25 00:13:35;;;;;;;3.27;1.77;;;;;;;11.07;83.19;148905.72;4901276;29;20321;-54
2023/09/25 00:16:03;;;;;;;3.93;1.60;;;;;;;10.98;84.09;148882.06;4898883;29;20250;-53
2023/09/25 00:18:29;;;;;;;5.30;1.50;;;;;;;11.47;79.90;149001.66;4899558;29;20255;-54
2023/09/25 00:20:56;;;;;;;5.13;1.73;;;;;;;11.47;80.66;149000.44;4900351;28;20223;-53
2023/09/25 00:23:23;;;;;;;6.43;1.70;;;;;;;11.22;82.15;148940.63;4901969;29;20321;-52
2023/09/25 00:25:50;;;;;;;6.90;1.80;;;;;;;11.03;84.34;148895.75;4894681;29;20278;-52
2023/09/25 00:28:17;;;;;;;2.77;1.20;;;;;;;10.86;85.39;148853.41;4915476;29;20239;-54
2023/09/25 00:30:50;;;;;;;2.37;1.33;;;;;;;10.66;85.35;148804.84;4923015;28;20590;-54
2023/09/25 00:33:18;;;;;;;5.57;1.50;;;;;;;10.62;85.78;148796.09;4899013;29;20330;-52
2023/09/25 00:35:50;;;;;;;5.13;1.60;;;;;;;10.51;88.91;148768.75;4919241;28;20335;-54
2023/09/25 00:38:16;;;;;;;2.37;1.27;;;;;;;10.71;86.77;148818.53;4902244;29;20235;-52
2023/09/25 00:41:09;;;;;;;5.50;1.60;;;;;;;10.55;90.69;148779.94;4898441;29;20317;-54
2023/09/25 00:43:35;;;;;;;4.77;1.30;;;;;;;10.46;90.66;148757.50;4901583;29;20231;-52
2023/09/25 00:46:02;;;;;;;4.80;1.60;;;;;;;10.39;87.91;148740.03;4896420;29;20784;-52
2023/09/25 00:48:32;;;;;;;2.87;1.53;;;;;;;10.95;83.05;148875.81;4908523;29;20242;-52
2023/09/25 00:51:01;;;;;;;3.40;1.43;;;;;;;10.90;85.89;148863.38;4897747;29;20226;-53
2023/09/25 00:53:30;;;;;;;2.37;1.33;;;;;;;10.80;85.58;148838.44;4904882;29;20235;-53
2023/09/25 00:55:57;;;;;;;5.13;1.47;;;;;;;10.71;85.84;148817.31;4896849;29;20236;-54
2023/09/25 00:58:25;;;;;;;4.73;1.80;;;;;;;10.65;85.99;148802.34;4900431;29;20237;-53
2023/09/25 01:00:52;;;;;;;2.50;1.13;;;;;;;10.67;85.89;148807.34;4899128;28;20238;-52
2023/09/25 01:03:19;;;;;;;2.97;1.27;;;;;;;10.65;85.47;148803.56;4904172;29;20611;-53
2023/09/25 01:05:51;;;;;;;4.37;1.30;;;;;;;10.67;90.67;148808.56;4920112;28;20247;-52
2023/09/25 01:08:18;;;;;;;4.53;1.50;;;;;;;10.62;85.55;148797.38;4922188;28;20238;-52
2023/09/25 01:10:51;;;;;;;2.50;1.30;;;;;;;10.62;86.33;148797.38;4900171;28;20703;-54
2023/09/25 01:13:17;;;;;;;4.77;1.27;;;;;;;10.55;87.60;148779.94;4903271;29;20310;-51
2023/09/25 01:15:50;;;;;;;2.30;1.27;;;;;;;10.58;86.64;148786.19;4903388;29;20797;-52
2023/09/25 01:18:17;;;;;;;2.50;1.20;;;;;;;10.71;84.91;148817.31;4899959;29;20244;-54
2023/09/25 01:20:51;;;;;;;9.13;1.63;;;;;;;10.66;84.40;148806.06;4896199;28;20313;-52
2023/09/25 01:23:19;;;;;;;6.17;1.40;;;;;;;10.83;83.91;148845.94;4897928;29;20254;-53
2023/09/25 01:25:50;;;;;;;2.30;1.20;;;;;;;10.93;83.02;148870.84;4902657;28;20230;-52
2023/09/25 01:28:16;;;;;;;3.00;1.50;;;;;;;11.38;78.58;148979.22;4907738;29;20244;-53
2023/09/25 01:31:08;;;;;;;4.55;1.80;;;;;;;11.34;80.23;148970.53;4901547;28;20570;-54
2023/09/25 01:33:35;;;;;;;3.93;1.17;;;;;;;11.55;76.21;149020.38;4904220;29;20242;-52
2023/09/25 01:36:02;;;;;;;5.83;1.53;;;;;;;11.75;74.05;149067.69;4899344;29;20239;-54
2023/09/25 01:38:30;;;;;;;4.57;1.20;;;;;;;11.84;74.60;149090.13;4903994;29;20227;-54
2023/09/25 01:40:56;;;;;;;4.23;1.60;;;;;;;11.61;76.73;149035.34;4903181;29;20238;-52
2023/09/25 01:43:23;;;;;;;2.97;1.30;;;;;;;12.09;71.66;149150.03;4903831;29;20231;-52
2023/09/25 01:45:50;;;;;;;3.30;1.43;;;;;;;11.74;75.07;149066.47;4918020;28;20231;-52
2023/09/25 01:48:16;;;;;;;3.30;1.33;;;;;;;11.70;74.72;149055.22;4918100;29;20231;-52
2023/09/25 01:51:09;;;;;;;2.50;1.30;;;;;;;11.73;72.41;149063.97;4900593;28;20246;-52
2023/09/25 01:53:37;;;;;;;4.30;1.40;;;;;;;11.81;70.25;149083.91;4904638;29;20239;-52
2023/09/25 01:56:11;;;;;;;2.57;1.17;;;;;;;11.86;69.78;149095.13;4921756;29;20239;-54
2023/09/25 01:58:38;;;;;;;3.60;1.27;;;;;;;11.92;68.82;149110.09;4903881;29;20238;-53
2023/09/25 02:01:04;;;;;;;2.00;1.60;;;;;;;11.85;70.25;149091.41;4898176;29;20247;-54
2023/09/25 02:03:31;;;;;;;2.43;1.30;;;;;;;11.80;73.17;149080.16;4904004;29;20720;-54
2023/09/25 02:05:58;;;;;;;4.17;1.50;;;;;;;11.75;73.03;149068.97;4922513;28;20243;-54
2023/09/25 02:08:26;;;;;;;3.70;1.57;;;;;;;11.81;72.54;149083.91;4905904;29;20235;-52
2023/09/25 02:10:54;;;;;;;1.87;1.20;;;;;;;11.74;70.90;149065.19;4923411;28;20236;-53
2023/09/25 02:13:21;;;;;;;2.63;1.50;;;;;;;11.51;72.83;149010.41;4907823;29;20632;-52
2023/09/25 02:15:51;;;;;;;3.53;1.40;;;;;;;11.28;78.19;148954.31;4923545;28;20716;-53
2023/09/25 02:18:18;;;;;;;2.00;1.17;;;;;;;11.12;76.69;148915.69;4926845;29;20272;-54
2023/09/25 02:20:50;;;;;;;2.33;1.07;;;;;;;11.10;75.97;148910.72;4901481;29;20285;-52
2023/09/25 02:23:18;;;;;;;2.00;1.27;;;;;;;11.10;77.46;148910.72;4904751;29;20678;-52
2023/09/25 02:25:50;;;;;;;2.73;1.33;;;;;;;11.04;75.29;148897.03;4900579;28;21155;-54
2023/09/25 02:28:21;;;;;;;5.43;1.47;;;;;;;10.88;77.17;148858.38;4915820;29;20237;-54
2023/09/25 02:30:51;;;;;;;2.10;1.17;;;;;;;10.79;77.94;148837.22;4901333;28;20238;-52
2023/09/25 02:33:20;;;;;;;3.70;1.27;;;;;;;11.12;75.58;148915.69;4903206;29;20231;-52
2023/09/25 02:35:50;;;;;;;5.17;1.40;;;;;;;11.15;75.01;148923.16;4899386;28;20239;-52
2023/09/25 02:38:16;;;;;;;2.60;1.27;;;;;;;11.17;73.67;148929.38;4904028;29;20234;-52
2023/09/25 02:41:09;;;;;;;2.37;1.37;;;;;;;11.09;74.39;148909.50;4903907;29;20714;-52
2023/09/25 02:43:38;;;;;;;3.53;1.27;;;;;;;11.00;76.02;148887.06;4906521;29;20602;-54
2023/09/25 02:46:06;;;;;;;2.23;1.00;;;;;;;11.06;72.91;148902.00;4905571;28;20232;-54
2023/09/25 02:48:32;;;;;;;3.30;1.33;;;;;;;10.95;75.73;148874.59;4906053;29;20235;-54
2023/09/25 02:50:59;;;;;;;2.90;1.03;;;;;;;10.75;78.22;148827.25;4907019;28;20237;-54
2023/09/25 02:53:26;;;;;;;4.07;1.23;;;;;;;10.64;78.26;148801.09;4922837;28;20238;-54
2023/09/25 02:55:53;;;;;;;2.63;1.10;;;;;;;10.55;80.33;148779.94;4895906;29;20827;-52
2023/09/25 02:58:20;;;;;;;4.00;1.37;;;;;;;10.39;80.21;148740.03;4899992;29;20620;-54
2023/09/25 03:03:59;;;;;;;3.07;1.13;;;;;;;10.20;82.41;148695.19;5636546;23;20562;-57
2023/09/25 03:06:26;;;;;;;1.90;1.20;;;;;;;10.21;82.15;148696.47;4931755;28;20244;-56
2023/09/25 03:08:53;;;;;;;2.37;1.30;;;;;;;10.08;81.76;148666.59;4923794;28;20286;-56
2023/09/25 03:11:19;;;;;;;3.60;1.30;;;;;;;10.00;82.87;148646.66;4926009;28;20242;-56
2023/09/25 03:13:46;;;;;;;4.47;1.20;;;;;;;9.95;85.92;148635.47;4923421;28;20262;-55
2023/09/25 03:16:14;;;;;;;3.33;1.40;;;;;;;9.80;88.93;148598.13;4941397;28;21131;-57
2023/09/25 03:18:42;;;;;;;5.20;1.63;;;;;;;9.68;89.88;148569.47;4925791;29;20231;-56
2023/09/25 03:21:11;;;;;;;2.90;1.43;;;;;;;9.68;88.66;148569.47;4922183;29;20230;-56
2023/09/25 03:23:38;;;;;;;4.87;1.50;;;;;;;9.58;91.49;148545.84;4917037;29;20694;-58
2023/09/25 03:26:15;;;;;;;2.67;1.30;;;;;;;9.39;90.11;148499.81;4923948;28;20638;-56
2023/09/25 03:28:43;;;;;;;2.77;1.20;;;;;;;9.27;90.84;148472.44;4914427;28;20233;-57
2023/09/25 03:31:10;;;;;;;1.90;1.40;;;;;;;9.18;91.34;148450.03;5203993;23;20481;-54
2023/09/25 03:33:37;;;;;;;3.87;1.23;;;;;;;9.04;91.21;148415.19;4927483;28;20232;-54
2023/09/25 03:36:04;;;;;;;2.47;1.27;;;;;;;9.05;92.29;148417.69;4923756;28;20236;-56
2023/09/25 03:38:32;;;;;;;1.90;1.17;;;;;;;9.01;93.11;148410.22;4925947;28;20237;-56
2023/09/25 03:40:59;;;;;;;2.43;1.17;;;;;;;9.08;91.37;148426.38;4924543;28;20236;-56
2023/09/25 03:43:27;;;;;;;2.33;1.23;;;;;;;8.99;91.14;148404.00;4927240;29;20225;-55
2023/09/25 03:45:53;;;;;;;2.37;1.30;;;;;;;8.93;93.24;148389.09;4923860;28;20225;-59
2023/09/25 03:48:22;;;;;;;4.87;1.27;;;;;;;8.94;91.23;148392.78;4944190;28;20259;-55
2023/09/25 03:50:50;;;;;;;3.70;1.20;;;;;;;9.01;92.86;148410.22;4924197;28;20707;-55
2023/09/25 03:53:17;;;;;;;3.13;1.23;;;;;;;8.94;92.90;148391.56;4924487;29;20276;-56
2023/09/25 03:55:51;;;;;;;4.00;1.33;;;;;;;8.99;94.39;148405.25;4923795;28;20247;-56
2023/09/25 03:58:18;;;;;;;2.87;1.10;;;;;;;8.85;94.02;148371.66;4918244;29;20305;-54
2023/09/25 04:00:52;;;;;;;5.20;1.20;;;;;;;8.75;93.28;148345.50;4924509;28;20237;-54
2023/09/25 04:03:19;;;;;;;2.30;1.30;;;;;;;8.70;94.33;148335.56;4927856;29;20572;-54
2023/09/25 04:05:50;;;;;;;2.93;1.50;;;;;;;8.83;94.39;148365.44;4926299;28;20324;-56
2023/09/25 04:08:16;;;;;;;3.83;1.43;;;;;;;8.79;94.87;148355.47;4928256;29;20821;-57
2023/09/25 04:11:11;;;;;;;4.00;1.20;;;;;;;8.76;96.99;148348.00;4925410;28;20324;-57
2023/09/25 04:13:38;;;;;;;2.83;1.40;;;;;;;8.56;97.91;148302.00;4928742;28;20378;-56
2023/09/25 04:16:06;;;;;;;4.67;1.40;;;;;;;8.54;98.57;148295.75;4927306;28;20233;-56
2023/09/25 04:18:32;;;;;;;2.83;1.50;;;;;;;8.57;97.37;148303.22;4928304;29;20264;-56
2023/09/25 04:21:02;;;;;;;5.70;1.60;;;;;;;8.49;97.60;148283.31;4925549;28;21113;-55
2023/09/25 04:23:28;;;;;;;3.13;1.67;;;;;;;8.42;100.00;148268.41;4927447;28;20227;-53
2023/09/25 04:26:00;;;;;;;10.70;1.47;;;;;;;8.31;97.54;148239.75;4924857;28;20577;-56
2023/09/25 04:28:29;;;;;;;3.77;1.40;;;;;;;8.19;98.22;148212.41;4927410;28;20651;-55
2023/09/25 04:30:57;;;;;;;4.87;1.33;;;;;;;8.26;100.00;148229.81;4924330;28;20607;-56
2023/09/25 04:33:24;;;;;;;3.47;1.50;;;;;;;8.21;100.00;148216.16;4927300;29;20840;-54
2023/09/25 04:35:52;;;;;;;3.07;1.40;;;;;;;8.11;100.00;148193.78;4924465;28;20602;-56
2023/09/25 04:38:18;;;;;;;4.40;1.40;;;;;;;8.08;100.00;148186.31;4927592;29;20244;-55
2023/09/25 04:40:49;;;;;;;3.70;1.50;;;;;;;8.11;100.00;148193.78;4925009;28;20700;-56
2023/09/25 04:43:17;;;;;;;4.50;1.47;;;;;;;8.10;100.00;148190.03;4927606;29;20323;-55
2023/09/25 04:45:51;;;;;;;4.50;1.60;;;;;;;7.95;100.00;148155.19;4925093;28;20231;-56
2023/09/25 04:48:18;;;;;;;2.93;1.33;;;;;;;8.02;100.00;148170.13;4926052;29;20731;-55
2023/09/25 04:50:50;;;;;;;5.07;1.53;;;;;;;7.97;100.00;148158.97;4924497;28;20339;-55
2023/09/25 04:53:19;;;;;;;5.60;1.80;;;;;;;7.91;100.00;148145.31;4927708;29;20241;-55
2023/09/25 04:55:50;;;;;;;3.80;1.50;;;;;;;7.82;100.00;148122.94;4924699;28;20236;-53
2023/09/25 04:58:17;;;;;;;3.50;1.73;;;;;;;7.71;100.00;148096.78;4928087;28;20346;-56
2023/09/25 05:00:53;;;;;;;5.60;2.17;;;;;;;7.54;100.00;148055.78;4930895;28;20225;-55
2023/09/25 05:03:19;;;;;;;2.70;1.60;;;;;;;7.50;100.00;148045.84;4933855;28;20309;-53
2023/09/25 05:05:51;;;;;;;1.93;1.30;;;;;;;7.40;100.00;148022.25;4930911;28;20789;-56
2023/09/25 05:08:17;;;;;;;4.93;1.77;;;;;;;7.34;100.00;148007.34;4934133;28;20242;-53
2023/09/25 05:10:50;;;;;;;3.73;1.73;;;;;;;7.23;100.00;147982.50;4930877;28;20815;-56
2023/09/25 05:13:21;;;;;;;2.63;1.60;;;;;;;7.31;100.00;148001.09;4933406;28;20271;-56
2023/09/25 05:15:51;;;;;;;2.93;1.60;;;;;;;7.33;100.00;148004.84;4931107;28;20239;-56
2023/09/25 05:18:17;;;;;;;3.03;1.50;;;;;;;7.27;100.00;147991.16;4933486;29;20240;-54
2023/09/25 05:20:50;;;;;;;5.80;1.80;;;;;;;7.37;100.00;148016.03;4930373;28;20235;-57
2023/09/25 05:23:18;;;;;;;2.80;1.87;;;;;;;7.46;100.00;148037.13;4933732;28;20247;-56
2023/09/25 05:25:50;;;;;;;4.67;1.90;;;;;;;7.46;100.00;148037.13;4919272;28;20227;-56
2023/09/25 05:28:17;;;;;;;4.53;1.80;;;;;;;7.51;100.00;148048.34;4933717;28;20227;-57
2023/09/25 05:31:10;;;;;;;6.53;1.80;;;;;;;7.50;100.00;148045.84;4929505;28;20238;-55
2023/09/25 05:33:36;;;;;;;4.27;1.80;;;;;;;7.43;100.00;148029.66;4933500;29;20230;-56
2023/09/25 05:36:03;;;;;;;5.23;1.90;;;;;;;7.47;100.00;148038.41;4930955;28;20246;-56
2023/09/25 05:38:29;;;;;;;3.63;1.70;;;;;;;7.52;100.00;148050.81;4933524;29;20590;-54
2023/09/25 05:40:56;;;;;;;2.10;1.70;;;;;;;7.63;100.00;148076.91;4930124;28;20227;-54
2023/09/25 05:43:23;;;;;;;3.27;1.80;;;;;;;7.65;100.00;148081.88;4933540;29;20703;-56
2023/09/25 05:45:49;;;;;;;3.50;1.70;;;;;;;7.66;100.00;148084.38;4930518;28;20240;-54
2023/09/25 05:48:17;;;;;;;7.50;1.90;;;;;;;7.71;100.00;148095.56;4933446;28;20239;-55
2023/09/25 05:50:50;;;;;;;4.47;1.60;;;;;;;7.68;100.00;148090.59;4929770;28;20250;-55
2023/09/25 05:53:17;;;;;;;3.53;2.03;;;;;;;7.69;100.00;148091.81;4933910;28;20226;-56
2023/09/25 05:56:08;;;;;;;2.00;1.40;;;;;;;7.63;100.00;148076.91;4931446;28;20236;-55
2023/09/25 05:58:35;;;;;;;3.47;1.77;;;;;;;7.64;100.00;148080.66;4933584;29;21072;-56
2023/09/25 06:01:02;;;;;;;4.07;1.53;;;;;;;7.60;100.00;148069.44;4931029;28;20227;-55
2023/09/25 06:03:31;;;;;;;2.87;1.90;;;;;;;7.60;100.00;148069.44;4932073;28;20294;-56
2023/09/25 06:05:58;;;;;;;4.70;1.93;;;;;;;7.57;100.00;148061.97;4930458;28;20718;-57
2023/09/25 06:08:25;;;;;;;4.93;1.80;;;;;;;7.57;100.00;148063.25;4933815;28;20283;-56
2023/09/25 06:11:00;;;;;;;3.70;2.13;;;;;;;7.59;100.00;148066.97;4928322;28;20239;-57
2023/09/25 06:13:27;;;;;;;3.63;1.77;;;;;;;7.58;100.00;148064.47;4930549;28;20286;-56
2023/09/25 06:15:53;;;;;;;3.20;1.70;;;;;;;7.62;100.00;148075.69;4927884;28;20233;-55
2023/09/25 06:18:21;;;;;;;3.63;1.40;;;;;;;7.68;100.00;148090.59;4929933;29;20231;-57
2023/09/25 06:20:51;;;;;;;3.00;1.87;;;;;;;7.66;100.00;148084.38;4927026;28;20233;-57
2023/09/25 06:23:18;;;;;;;5.97;1.60;;;;;;;7.70;100.00;148093.09;4930042;28;20284;-53
2023/09/25 06:25:50;;;;;;;4.60;1.70;;;;;;;7.73;100.00;148101.75;4927493;28;20620;-53
2023/09/25 06:28:18;;;;;;;3.03;1.80;;;;;;;7.76;100.00;148108.00;4930354;28;20259;-54
2023/09/25 06:30:50;;;;;;;3.07;1.70;;;;;;;7.86;100.00;148131.59;4926426;28;20231;-55
2023/09/25 06:33:17;;;;;;;3.93;1.90;;;;;;;7.92;100.00;148147.78;4930108;28;20692;-57
2023/09/25 06:36:10;;;;;;;3.43;1.67;;;;;;;7.99;100.00;148163.94;4927904;28;20239;-56
2023/09/25 06:38:36;;;;;;;6.30;1.80;;;;;;;8.07;100.00;148183.81;4929472;28;20220;-56
2023/09/25 06:41:03;;;;;;;2.40;1.60;;;;;;;8.15;100.00;148202.47;4926307;28;20242;-57
2023/09/25 06:43:30;;;;;;;2.40;1.50;;;;;;;8.19;100.00;148212.41;4928533;29;20240;-56
2023/09/25 06:45:56;;;;;;;4.73;1.70;;;;;;;8.24;100.00;148223.63;4926411;28;20232;-56
2023/09/25 06:48:23;;;;;;;2.47;1.50;;;;;;;8.27;100.00;148232.31;4930548;29;20255;-56
2023/09/25 06:50:50;;;;;;;3.53;2.03;;;;;;;8.31;100.00;148239.75;4925556;28;20308;-57
2023/09/25 06:53:18;;;;;;;5.73;1.90;;;;;;;8.43;100.00;148269.63;4929849;28;20702;-55
2023/09/25 06:55:50;;;;;;;3.57;1.50;;;;;;;8.50;100.00;148285.81;4927011;28;20388;-56
2023/09/25 06:58:16;;;;;;;5.33;1.70;;;;;;;8.52;100.00;148290.78;4930739;28;20220;-56
2023/09/25 07:00:50;;;;;;;2.63;1.57;;;;;;;8.62;100.00;148315.66;4925934;28;20711;-56
2023/09/25 07:03:17;;;;;;;2.43;1.63;;;;;;;8.66;100.00;148325.63;4929700;28;20225;-57
2023/09/25 07:05:49;;;;;;;3.77;1.50;;;;;;;8.73;100.00;148340.53;4926953;28;20220;-54
2023/09/25 07:08:18;;;;;;;3.80;1.70;;;;;;;8.81;100.00;148360.44;4929795;28;20707;-57
2023/09/25 07:10:50;;;;;;;2.93;1.40;;;;;;;8.84;100.00;148369.19;4925898;28;20236;-57
2023/09/25 07:13:17;;;;;;;2.67;1.30;;;;;;;8.94;100.00;148391.56;4929381;28;20293;-56
2023/09/25 07:15:50;;;;;;;3.63;1.50;;;;;;;8.96;100.00;148397.78;4925935;28;20229;-56
2023/09/25 07:18:17;;;;;;;2.90;1.87;;;;;;;9.01;100.00;148410.22;4929350;28;20233;-56
2023/09/25 07:21:09;;;;;;;3.97;1.63;;;;;;;9.10;100.00;148431.34;4925726;28;20332;-55
2023/09/25 07:23:37;;;;;;;2.77;1.63;;;;;;;9.22;100.00;148458.72;4928617;29;20708;-56
2023/09/25 07:26:05;;;;;;;3.90;1.87;;;;;;;9.34;100.00;148488.59;4926307;28;20249;-56
2023/09/25 07:28:32;;;;;;;3.77;1.53;;;;;;;9.46;100.00;148517.22;4928725;29;20230;-57
2023/09/25 07:31:00;;;;;;;3.57;1.50;;;;;;;9.63;100.00;148557.03;4925580;29;20316;-59
2023/09/25 07:33:27;;;;;;;7.40;1.83;;;;;;;9.78;100.00;148593.16;4928316;29;20229;-56
2023/09/25 07:35:54;;;;;;;4.20;1.30;;;;;;;9.94;100.00;148632.97;4927398;28;20261;-56
2023/09/25 07:38:20;;;;;;;5.57;2.07;;;;;;;10.06;100.00;148660.38;4929043;28;20225;-55
2023/09/25 07:40:51;;;;;;;5.90;1.73;;;;;;;10.22;100.00;148698.94;4925585;28;20637;-55
2023/09/25 07:43:19;;;;;;;2.77;1.60;;;;;;;10.40;100.00;148742.56;4929696;28;20695;-56
2023/09/25 07:45:52;;;;;;;2.60;1.57;;;;;;;10.61;100.00;148793.59;4925272;29;20265;-55
2023/09/25 07:48:19;;;;;;;2.73;1.40;;;;;;;10.80;100.00;148838.44;4928807;28;20546;-52
2023/09/25 07:50:55;;;;;;;3.37;1.40;;;;;;;10.99;100.00;148885.78;4924532;28;20261;-54
2023/09/25 07:53:23;;;;;;;5.33;1.40;;;;;;;11.20;99.78;148935.63;4928225;29;20223;-55
2023/09/25 07:55:51;;;;;;;3.90;1.47;;;;;;;11.39;99.05;148980.50;4926439;28;20235;-56
2023/09/25 07:58:19;;;;;;;2.97;1.63;;;;;;;11.52;100.00;149014.13;4928002;28;20690;-53
2023/09/25 08:00:51;;;;;;;2.13;1.20;;;;;;;11.72;98.93;149060.22;4924435;28;20699;-56
2023/09/25 08:03:22;;;;;;;2.57;1.40;;;;;;;11.84;96.97;149090.13;4926011;29;20337;-57
2023/09/25 08:05:52;;;;;;;3.03;1.30;;;;;;;11.95;93.48;149117.56;4938103;28;20232;-57
2023/09/25 08:08:19;;;;;;;4.50;2.37;;;;;;;12.11;92.25;149155.00;4927048;28;20253;-56
2023/09/25 08:10:51;;;;;;;3.17;1.50;;;;;;;12.25;92.04;149188.66;4923600;28;20226;-56
2023/09/25 08:13:18;;;;;;;3.13;1.70;;;;;;;12.38;94.09;149219.84;4927560;29;20763;-57
2023/09/25 08:15:51;;;;;;;2.80;1.43;;;;;;;12.47;92.45;149241.03;4924269;28;20296;-57
2023/09/25 08:18:17;;;;;;;4.17;1.50;;;;;;;12.51;92.51;149252.28;4927874;28;20235;-56
2023/09/25 08:20:50;;;;;;;2.90;1.50;;;;;;;12.58;89.13;149267.25;4924751;28;20244;-57
2023/09/25 08:23:16;;;;;;;2.97;1.47;;;;;;;12.69;90.23;149294.69;4927353;28;20230;-56
2023/09/25 08:25:51;;;;;;;7.77;3.43;;;;;;;12.77;92.10;149314.59;4925247;28;20238;-55
2023/09/25 08:28:18;;;;;;;5.87;3.10;;;;;;;12.89;91.31;149342.03;4927052;28;20240;-54
2023/09/25 08:30:50;;;;;;;12.83;3.23;;;;;;;12.81;91.79;149323.34;4924011;29;20237;-58
2023/09/25 08:33:17;;;;;;;4.77;2.90;;;;;;;12.92;92.60;149349.50;4926349;28;20230;-57
2023/09/25 08:35:50;;;;;;;6.93;3.07;;;;;;;13.06;91.98;149384.44;4924343;28;20226;-57
2023/09/25 08:38:16;;;;;;;5.93;3.47;;;;;;;13.13;90.70;149400.69;4927384;28;20239;-55
2023/09/25 08:41:11;;;;;;;12.43;3.30;;;;;;;13.09;89.07;149391.94;4924890;28;20377;-56
2023/09/25 08:43:41;;;;;;;5.10;3.10;;;;;;;13.14;89.62;149404.41;4927153;28;20234;-56
2023/09/25 08:46:08;;;;;;;7.93;3.53;;;;;;;13.17;90.49;149410.66;4922912;28;20630;-56
2023/09/25 08:48:35;;;;;;;5.70;3.17;;;;;;;13.19;91.03;149414.38;4940004;28;20222;-58
2023/09/25 08:51:02;;;;;;;4.03;2.63;;;;;;;13.29;90.12;149440.56;4925291;28;21039;-57
2023/09/25 08:53:30;;;;;;;4.60;2.90;;;;;;;13.35;89.91;149454.31;4927429;29;20234;-57
2023/09/25 08:55:57;;;;;;;9.80;2.63;;;;;;;13.39;88.94;149464.28;4925177;28;20231;-56
2023/09/25 08:58:25;;;;;;;7.40;2.83;;;;;;;13.43;89.39;149474.31;4929114;29;20591;-58
2023/09/25 09:00:53;;;;;;;5.43;2.80;;;;;;;13.49;90.54;149488.03;4924836;28;20648;-56
2023/09/25 09:03:20;;;;;;;8.73;3.33;;;;;;;13.59;89.66;149511.75;4926735;29;20222;-57
2023/09/25 09:05:50;;;;;;;4.53;2.90;;;;;;;13.76;89.13;149552.94;4924426;28;20226;-57
2023/09/25 09:08:17;;;;;;;4.20;2.37;;;;;;;13.83;86.06;149569.13;4927793;28;20223;-56
2023/09/25 09:10:50;;;;;;;5.30;2.50;;;;;;;13.92;83.38;149591.59;4923880;28;20710;-55
2023/09/25 09:13:22;;;;;;;6.30;3.77;;;;;;;14.01;83.40;149614.06;4926756;28;20687;-58
2023/09/25 09:15:51;;;;;;;6.33;2.53;;;;;;;14.10;82.68;149634.03;4937560;28;20229;-56
2023/09/25 09:18:20;;;;;;;5.97;2.83;;;;;;;14.13;80.97;149641.53;4927266;28;20269;-57
2023/09/25 09:20:51;;;;;;;4.10;2.70;;;;;;;14.26;80.15;149672.75;4924152;28;20236;-58
2023/09/25 09:23:18;;;;;;;5.67;2.63;;;;;;;14.27;80.81;149676.50;4927048;29;20600;-57
2023/09/25 09:25:51;;;;;;;3.20;2.27;;;;;;;14.41;81.53;149708.94;4918854;28;20240;-58
2023/09/25 09:28:17;;;;;;;5.33;2.60;;;;;;;14.46;80.85;149721.44;4924213;28;20562;-58
2023/09/25 09:30:51;;;;;;;5.55;2.72;;;;;;;14.63;80.45;149761.41;4922935;28;20437;-59
2023/09/25 09:33:18;;;;;;;7.20;2.67;;;;;;;14.62;81.63;149760.13;4926434;29;20241;-58
2023/09/25 09:35:50;;;;;;;5.10;2.77;;;;;;;14.65;80.72;149767.63;4924282;28;20244;-55
2023/09/25 09:38:18;;;;;;;6.10;2.10;;;;;;;14.69;82.17;149776.38;4927247;28;20244;-58
2023/09/25 09:40:51;;;;;;;7.47;2.80;;;;;;;14.84;82.04;149812.63;4924028;28;20680;-58
2023/09/25 09:43:18;;;;;;;6.17;2.93;;;;;;;14.86;81.60;149817.63;4926866;28;20240;-58
2023/09/25 09:45:51;;;;;;;8.67;2.73;;;;;;;14.94;82.09;149836.34;4924137;29;20243;-58
2023/09/25 09:48:20;;;;;;;7.70;2.83;;;;;;;15.03;81.29;149860.09;4930438;29;20243;-58
2023/09/25 09:50:56;;;;;;;5.30;2.47;;;;;;;15.11;80.56;149878.81;4928201;28;20238;-58
2023/09/25 09:53:23;;;;;;;5.00;2.20;;;;;;;15.14;79.50;149886.31;4930609;29;20312;-57
2023/09/25 09:55:51;;;;;;;5.43;2.37;;;;;;;15.24;79.22;149910.06;4927242;28;20233;-57
2023/09/25 09:58:18;;;;;;;6.03;2.40;;;;;;;15.33;78.50;149932.53;4930248;29;20242;-56
2023/09/25 10:00:52;;;;;;;3.50;2.00;;;;;;;15.42;74.77;149953.75;4926677;28;20241;-58
2023/09/25 10:03:18;;;;;;;6.63;1.90;;;;;;;15.54;74.19;149981.25;4930270;28;20240;-59
2023/09/25 10:05:51;;;;;;;5.23;2.20;;;;;;;15.53;73.76;149978.75;4927216;28;20233;-60
2023/09/25 10:08:18;;;;;;;4.07;2.00;;;;;;;15.61;72.38;149999.97;4930751;29;20705;-60
2023/09/25 10:10:51;;;;;;;3.53;2.20;;;;;;;15.73;70.74;150027.47;4926880;28;20341;-61
2023/09/25 10:13:25;;;;;;;3.60;1.80;;;;;;;15.69;68.61;150017.47;4929259;28;20275;-61
2023/09/25 10:15:57;;;;;;;6.03;1.80;;;;;;;15.79;70.31;150043.72;4926873;29;20234;-60
2023/09/25 10:18:26;;;;;;;3.70;1.80;;;;;;;15.91;69.20;150071.22;4930104;28;20712;-60
2023/09/25 10:21:01;;;;;;;2.33;1.57;;;;;;;15.95;66.90;150081.22;4918986;28;20236;-60
2023/09/25 10:23:29;;;;;;;5.17;1.60;;;;;;;15.97;68.59;150085.00;4924817;29;20308;-60
2023/09/25 10:26:02;;;;;;;6.10;1.87;;;;;;;16.07;68.65;150110.00;4922471;28;20225;-61
2023/09/25 10:28:31;;;;;;;4.33;2.03;;;;;;;16.12;68.56;150121.22;4925554;28;20221;-59
2023/09/25 10:30:59;;;;;;;2.57;1.80;;;;;;;16.17;67.88;150135.00;4922290;28;20696;-60
2023/09/25 10:33:28;;;;;;;5.33;1.80;;;;;;;16.22;66.79;150146.22;4925780;29;20264;-60
2023/09/25 10:36:00;;;;;;;3.83;1.77;;;;;;;16.32;65.94;150170.00;4922349;28;20245;-60
2023/09/25 10:38:31;;;;;;;4.20;1.53;;;;;;;16.31;64.43;150168.72;4925170;29;20224;-60
2023/09/25 10:41:02;;;;;;;4.63;1.80;;;;;;;16.43;64.90;150197.44;4923129;28;20719;-60
2023/09/25 10:43:29;;;;;;;2.57;1.70;;;;;;;16.48;64.08;150208.72;4925486;29;20566;-62
2023/09/25 10:45:56;;;;;;;5.30;1.87;;;;;;;16.54;63.48;150223.72;4922350;28;20247;-59
2023/09/25 10:48:25;;;;;;;6.37;1.73;;;;;;;16.55;62.40;150226.22;4925997;29;20233;-60
2023/09/25 10:50:52;;;;;;;3.17;1.83;;;;;;;16.57;61.89;150231.22;4917771;28;20238;-60
2023/09/25 10:53:19;;;;;;;3.70;1.60;;;;;;;16.71;62.79;150263.72;4925363;29;20713;-60
2023/09/25 10:55:50;;;;;;;2.27;1.50;;;;;;;16.79;62.72;150284.97;4922929;28;20668;-60
2023/09/25 10:58:18;;;;;;;5.83;1.80;;;;;;;16.82;62.24;150291.25;4925252;29;20223;-58
2023/09/25 11:00:50;;;;;;;3.47;1.67;;;;;;;16.90;62.22;150309.97;4922034;28;20223;-60
2023/09/25 11:03:17;;;;;;;6.20;1.70;;;;;;;16.98;62.31;150330.03;4924468;29;20331;-59
2023/09/25 11:06:10;;;;;;;5.00;1.83;;;;;;;17.10;61.57;150360.03;4922576;28;20305;-60
2023/09/25 11:08:37;;;;;;;10.63;1.80;;;;;;;17.17;62.66;150376.28;4924245;28;20240;-60
2023/09/25 11:11:04;;;;;;;5.93;2.13;;;;;;;17.36;62.44;150421.31;4920664;28;20250;-61
2023/09/25 11:13:31;;;;;;;4.17;1.70;;;;;;;17.33;60.88;150413.81;4923693;29;20231;-60
2023/09/25 11:16:00;;;;;;;5.17;1.87;;;;;;;17.41;60.22;150435.09;4921546;28;20348;-60
2023/09/25 11:18:27;;;;;;;3.77;1.80;;;;;;;17.52;60.77;150460.06;4925833;28;20587;-60
2023/09/25 11:20:54;;;;;;;3.30;1.60;;;;;;;17.56;60.26;150471.34;4921990;28;20239;-60
2023/09/25 11:23:22;;;;;;;3.47;1.50;;;;;;;17.68;60.27;150498.88;4924053;28;20564;-60
2023/09/25 11:25:51;;;;;;;3.07;1.90;;;;;;;17.55;59.16;150467.56;4922501;28;20712;-60
2023/09/25 11:28:20;;;;;;;5.77;1.83;;;;;;;17.48;59.20;150451.34;4924404;28;20242;-60
2023/09/25 11:30:50;;;;;;;3.27;1.60;;;;;;;17.65;59.96;150491.38;4920364;28;20270;-60
2023/09/25 11:33:18;;;;;;;3.10;1.53;;;;;;;17.77;60.73;150521.38;4924688;28;20767;-60
2023/09/25 11:35:54;;;;;;;4.33;1.80;;;;;;;17.79;59.38;150526.41;4921919;28;20234;-60
2023/09/25 11:38:24;;;;;;;2.70;1.80;;;;;;;17.87;59.19;150543.91;4924960;28;20694;-60
2023/09/25 11:40:52;;;;;;;5.53;1.97;;;;;;;18.08;60.24;150596.47;4917245;28;20245;-60